Misterton, United Kingdom
Current Conditions -  °F | °C
As of 1:20 AM on Saturday 20 Dec 2014 (Local Time) from EGCN Reporting Station
Clear Clear  
Wind Chill:   Ceiling: Unl
Heat Index:   Visibility: 6mi
Dew Point:   Wind: 24mph
Humidity: 71%   Direction: 270°W
Pressure: 30.03"   Gusts: 37mph
Location:  53.45°N, 0.85°W
Report Text: EGCN 200120Z 27021G32KT CAVOK 08/03 Q1017
Loading
Personal Weather Stations






























Interactive Weather Map New forecast layout! Learn more

10-Day Weather Forecast

Advertisements
Track Severe Weather on mobile